sensor_id;sensor_type;location;lat;lon;timestamp;pressure;altitude;pressure_sealevel;temperature;humidity
57606;BME280;43430;48.204;11.556;2022-10-23T00:02:20;96310.22;;;9.56;100.00
57606;BME280;43430;48.204;11.556;2022-10-23T00:04:45;96312.28;;;9.47;100.00
57606;BME280;43430;48.204;11.556;2022-10-23T00:07:10;96315.72;;;9.47;100.00
57606;BME280;43430;48.204;11.556;2022-10-23T00:09:35;96311.28;;;9.41;100.00
57606;BME280;43430;48.204;11.556;2022-10-23T00:12:01;96321.41;;;9.44;100.00
57606;BME280;43430;48.204;11.556;2022-10-23T00:14:26;96321.56;;;9.49;100.00
57606;BME280;43430;48.204;11.556;2022-10-23T00:16:51;96318.94;;;9.49;100.00
57606;BME280;43430;48.204;11.556;2022-10-23T00:19:17;96311.03;;;9.49;100.00
57606;BME280;43430;48.204;11.556;2022-10-23T00:21:42;96315.50;;;9.49;100.00
57606;BME280;43430;48.204;11.556;2022-10-23T00:24:08;96308.41;;;9.49;100.00
57606;BME280;43430;48.204;11.556;2022-10-23T00:26:33;96308.41;;;9.49;100.00
57606;BME280;43430;48.204;11.556;2022-10-23T00:28:59;96305.59;;;9.44;100.00
57606;BME280;43430;48.204;11.556;2022-10-23T00:31:24;96304.59;;;9.39;100.00
57606;BME280;43430;48.204;11.556;2022-10-23T00:33:50;96306.81;;;9.35;100.00
57606;BME280;43430;48.204;11.556;2022-10-23T00:36:18;96308.25;;;9.31;100.00
57606;BME280;43430;48.204;11.556;2022-10-23T00:38:44;96308.28;;;9.24;100.00
57606;BME280;43430;48.204;11.556;2022-10-23T00:41:19;96311.31;;;9.21;100.00
57606;BME280;43430;48.204;11.556;2022-10-23T00:46:22;96312.34;;;9.14;100.00
57606;BME280;43430;48.204;11.556;2022-10-23T00:48:47;96309.69;;;9.14;100.00
57606;BME280;43430;48.204;11.556;2022-10-23T00:51:13;96301.19;;;9.12;100.00
57606;BME280;43430;48.204;11.556;2022-10-23T00:53:38;96310.31;;;9.09;100.00
57606;BME280;43430;48.204;11.556;2022-10-23T00:56:04;96315.19;;;9.06;100.00
57606;BME280;43430;48.204;11.556;2022-10-23T00:58:29;96311.94;;;9.03;100.00
57606;BME280;43430;48.204;11.556;2022-10-23T01:00:55;96304.03;;;8.97;100.00
57606;BME280;43430;48.204;11.556;2022-10-23T01:03:24;96303.25;;;8.90;100.00
57606;BME280;43430;48.204;11.556;2022-10-23T01:08:37;96306.50;;;8.85;100.00
57606;BME280;43430;48.204;11.556;2022-10-23T01:11:07;96296.78;;;8.72;100.00
57606;BME280;43430;48.204;11.556;2022-10-23T01:13:42;96295.97;;;8.72;100.00
57606;BME280;43430;48.204;11.556;2022-10-23T01:16:22;96283.63;;;8.72;100.00
57606;BME280;43430;48.204;11.556;2022-10-23T01:19:04;96291.09;;;8.69;100.00
57606;BME280;43430;48.204;11.556;2022-10-23T01:22:11;96290.91;;;8.64;100.00
57606;BME280;43430;48.204;11.556;2022-10-23T01:24:58;96292.31;;;8.60;100.00
57606;BME280;43430;48.204;11.556;2022-10-23T01:27:39;96289.50;;;8.61;100.00
57606;BME280;43430;48.204;11.556;2022-10-23T01:35:21;96278.97;;;8.61;100.00
57606;BME280;43430;48.204;11.556;2022-10-23T01:38:18;96287.88;;;8.47;100.00
57606;BME280;43430;48.204;11.556;2022-10-23T01:43:40;96294.50;;;8.49;100.00
57606;BME280;43430;48.204;11.556;2022-10-23T01:46:09;96288.47;;;8.49;100.00
57606;BME280;43430;48.204;11.556;2022-10-23T01:48:37;96288.84;;;8.46;100.00
57606;BME280;43430;48.204;11.556;2022-10-23T01:51:05;96283.59;;;8.46;100.00
57606;BME280;43430;48.204;11.556;2022-10-23T01:53:35;96277.34;;;8.40;100.00
57606;BME280;43430;48.204;11.556;2022-10-23T01:56:05;96277.13;;;8.42;100.00
57606;BME280;43430;48.204;11.556;2022-10-23T01:58:33;96270.44;;;8.39;100.00
57606;BME280;43430;48.204;11.556;2022-10-23T02:01:02;96264.97;;;8.34;100.00
57606;BME280;43430;48.204;11.556;2022-10-23T02:03:30;96263.34;;;8.33;100.00
57606;BME280;43430;48.204;11.556;2022-10-23T02:05:57;96264.34;;;8.32;100.00
57606;BME280;43430;48.204;11.556;2022-10-23T02:08:22;96256.88;;;8.29;100.00
57606;BME280;43430;48.204;11.556;2022-10-23T02:13:28;96243.72;;;8.29;100.00
57606;BME280;43430;48.204;11.556;2022-10-23T02:16:04;96236.28;;;8.26;100.00
57606;BME280;43430;48.204;11.556;2022-10-23T02:20:59;96236.66;;;8.23;100.00
57606;BME280;43430;48.204;11.556;2022-10-23T02:26:08;96231.03;;;8.26;100.00
57606;BME280;43430;48.204;11.556;2022-10-23T02:28:43;96232.22;;;8.23;100.00
57606;BME280;43430;48.204;11.556;2022-10-23T02:31:13;96230.78;;;8.21;100.00
57606;BME280;43430;48.204;11.556;2022-10-23T02:33:39;96223.94;;;8.20;100.00
57606;BME280;43430;48.204;11.556;2022-10-23T02:36:05;96226.56;;;8.13;100.00
57606;BME280;43430;48.204;11.556;2022-10-23T02:38:37;96230.38;;;8.17;100.00
57606;BME280;43430;48.204;11.556;2022-10-23T02:41:28;96223.94;;;8.20;100.00
57606;BME280;43430;48.204;11.556;2022-10-23T02:49:40;96216.44;;;8.17;100.00
57606;BME280;43430;48.204;11.556;2022-10-23T02:52:19;96211.59;;;8.14;100.00
57606;BME280;43430;48.204;11.556;2022-10-23T02:57:32;96211.38;;;8.08;100.00
57606;BME280;43430;48.204;11.556;2022-10-23T03:00:04;96223.31;;;8.18;100.00
57606;BME280;43430;48.204;11.556;2022-10-23T03:02:37;96213.81;;;8.17;100.00
57606;BME280;43430;48.204;11.556;2022-10-23T03:05:08;96211.38;;;8.15;100.00
57606;BME280;43430;48.204;11.556;2022-10-23T03:07:36;96207.34;;;8.13;100.00
57606;BME280;43430;48.204;11.556;2022-10-23T03:10:03;96210.38;;;8.09;100.00
57606;BME280;43430;48.204;11.556;2022-10-23T03:12:29;96216.22;;;8.05;100.00
57606;BME280;43430;48.204;11.556;2022-10-23T03:14:54;96210.56;;;8.08;100.00
57606;BME280;43430;48.204;11.556;2022-10-23T03:17:19;96209.34;;;8.04;100.00
57606;BME280;43430;48.204;11.556;2022-10-23T03:19:45;96201.06;;;8.00;100.00
57606;BME280;43430;48.204;11.556;2022-10-23T03:22:10;96195.63;;;7.95;100.00
57606;BME280;43430;48.204;11.556;2022-10-23T03:24:35;96190.75;;;7.92;100.00
57606;BME280;43430;48.204;11.556;2022-10-23T03:27:00;96192.38;;;7.93;100.00
57606;BME280;43430;48.204;11.556;2022-10-23T03:29:26;96197.00;;;7.91;100.00
57606;BME280;43430;48.204;11.556;2022-10-23T03:31:51;96190.16;;;7.90;100.00
57606;BME280;43430;48.204;11.556;2022-10-23T03:34:17;96193.38;;;7.92;100.00
57606;BME280;43430;48.204;11.556;2022-10-23T03:36:43;96198.25;;;7.95;100.00
57606;BME280;43430;48.204;11.556;2022-10-23T03:39:08;96202.09;;;7.99;100.00
57606;BME280;43430;48.204;11.556;2022-10-23T03:41:34;96205.94;;;8.03;100.00
57606;BME280;43430;48.204;11.556;2022-10-23T03:43:59;96201.28;;;8.05;100.00
57606;BME280;43430;48.204;11.556;2022-10-23T03:46:24;96198.06;;;8.10;100.00
57606;BME280;43430;48.204;11.556;2022-10-23T03:48:50;96198.69;;;8.12;100.00
57606;BME280;43430;48.204;11.556;2022-10-23T03:51:15;96200.06;;;8.08;100.00
57606;BME280;43430;48.204;11.556;2022-10-23T03:53:41;96208.75;;;8.08;100.00
57606;BME280;43430;48.204;11.556;2022-10-23T03:56:06;96203.28;;;7.97;100.00
57606;BME280;43430;48.204;11.556;2022-10-23T03:58:31;96210.13;;;7.91;100.00
57606;BME280;43430;48.204;11.556;2022-10-23T04:00:57;96205.72;;;8.05;100.00
57606;BME280;43430;48.204;11.556;2022-10-23T04:03:22;96204.72;;;8.13;100.00
57606;BME280;43430;48.204;11.556;2022-10-23T04:05:48;96202.28;;;8.11;100.00
57606;BME280;43430;48.204;11.556;2022-10-23T04:08:13;96204.50;;;8.07;100.00
57606;BME280;43430;48.204;11.556;2022-10-23T04:10:39;96198.03;;;8.03;100.00
57606;BME280;43430;48.204;11.556;2022-10-23T04:13:04;96194.78;;;8.01;100.00
57606;BME280;43430;48.204;11.556;2022-10-23T04:15:29;96194.22;;;7.99;100.00
57606;BME280;43430;48.204;11.556;2022-10-23T04:17:55;96197.84;;;7.98;100.00
57606;BME280;43430;48.204;11.556;2022-10-23T04:20:20;96185.13;;;7.95;100.00
57606;BME280;43430;48.204;11.556;2022-10-23T04:22:45;96185.91;;;7.96;100.00
57606;BME280;43430;48.204;11.556;2022-10-23T04:25:11;96200.03;;;7.95;100.00
57606;BME280;43430;48.204;11.556;2022-10-23T04:27:37;96191.56;;;7.93;100.00
57606;BME280;43430;48.204;11.556;2022-10-23T04:30:02;96183.88;;;7.91;100.00
57606;BME280;43430;48.204;11.556;2022-10-23T04:32:28;96190.16;;;7.90;100.00
57606;BME280;43430;48.204;11.556;2022-10-23T04:34:53;96193.34;;;7.79;100.00
57606;BME280;43430;48.204;11.556;2022-10-23T04:37:18;96198.78;;;7.71;100.00
57606;BME280;43430;48.204;11.556;2022-10-23T04:39:44;96208.06;;;7.67;100.00
57606;BME280;43430;48.204;11.556;2022-10-23T04:42:09;96206.44;;;7.66;100.00
57606;BME280;43430;48.204;11.556;2022-10-23T04:44:35;96199.00;;;7.76;100.00
57606;BME280;43430;48.204;11.556;2022-10-23T04:47:00;96190.72;;;7.79;100.00
57606;BME280;43430;48.204;11.556;2022-10-23T04:49:25;96195.19;;;7.78;100.00
57606;BME280;43430;48.204;11.556;2022-10-23T04:51:51;96195.59;;;7.82;100.00
57606;BME280;43430;48.204;11.556;2022-10-23T04:54:16;96189.13;;;7.84;100.00
57606;BME280;43430;48.204;11.556;2022-10-23T04:56:42;96190.94;;;7.91;100.00
57606;BME280;43430;48.204;11.556;2022-10-23T04:59:07;96187.72;;;7.89;100.00
57606;BME280;43430;48.204;11.556;2022-10-23T05:01:33;96188.13;;;7.92;100.00
57606;BME280;43430;48.204;11.556;2022-10-23T05:03:58;96177.25;;;7.95;100.00
57606;BME280;43430;48.204;11.556;2022-10-23T05:06:24;96171.59;;;7.98;100.00
57606;BME280;43430;48.204;11.556;2022-10-23T05:08:49;96170.34;;;8.01;100.00
57606;BME280;43430;48.204;11.556;2022-10-23T05:11:14;96162.88;;;7.98;100.00
57606;BME280;43430;48.204;11.556;2022-10-23T05:13:40;96166.13;;;8.00;100.00
57606;BME280;43430;48.204;11.556;2022-10-23T05:16:05;96160.66;;;8.01;100.00
57606;BME280;43430;48.204;11.556;2022-10-23T05:18:34;96162.09;;;8.04;100.00
57606;BME280;43430;48.204;11.556;2022-10-23T05:21:09;96159.66;;;8.02;100.00
57606;BME280;43430;48.204;11.556;2022-10-23T05:23:36;96169.16;;;7.97;100.00
57606;BME280;43430;48.204;11.556;2022-10-23T05:26:03;96166.50;;;7.83;100.00
57606;BME280;43430;48.204;11.556;2022-10-23T05:28:29;96159.63;;;7.82;100.00
57606;BME280;43430;48.204;11.556;2022-10-23T05:30:56;96159.03;;;7.87;100.00
57606;BME280;43430;48.204;11.556;2022-10-23T05:33:23;96147.94;;;7.92;100.00
57606;BME280;43430;48.204;11.556;2022-10-23T05:35:48;96141.06;;;7.97;100.00
57606;BME280;43430;48.204;11.556;2022-10-23T05:38:14;96150.38;;;8.00;100.00
57606;BME280;43430;48.204;11.556;2022-10-23T05:40:40;96147.53;;;8.01;100.00
57606;BME280;43430;48.204;11.556;2022-10-23T05:43:05;96150.78;;;8.03;100.00
57606;BME280;43430;48.204;11.556;2022-10-23T05:45:30;96152.19;;;7.99;100.00
57606;BME280;43430;48.204;11.556;2022-10-23T05:47:56;96146.72;;;7.94;100.00
57606;BME280;43430;48.204;11.556;2022-10-23T05:50:21;96157.22;;;7.88;100.00
57606;BME280;43430;48.204;11.556;2022-10-23T05:52:47;96154.19;;;7.84;100.00
57606;BME280;43430;48.204;11.556;2022-10-23T05:55:14;96151.34;;;7.79;100.00
57606;BME280;43430;48.204;11.556;2022-10-23T05:57:40;96152.38;;;7.84;100.00
57606;BME280;43430;48.204;11.556;2022-10-23T06:00:06;96155.00;;;7.84;100.00
57606;BME280;43430;48.204;11.556;2022-10-23T06:02:32;96158.03;;;7.81;100.00
57606;BME280;43430;48.204;11.556;2022-10-23T06:04:57;96164.47;;;7.79;100.00
57606;BME280;43430;48.204;11.556;2022-10-23T06:07:26;96163.66;;;7.72;100.00
57606;BME280;43430;48.204;11.556;2022-10-23T06:09:52;96170.31;;;7.81;100.00
57606;BME280;43430;48.204;11.556;2022-10-23T06:12:22;96173.56;;;7.83;100.00
57606;BME280;43430;48.204;11.556;2022-10-23T06:14:48;96168.31;;;7.83;100.00
57606;BME280;43430;48.204;11.556;2022-10-23T06:17:14;96172.94;;;7.81;100.00
57606;BME280;43430;48.204;11.556;2022-10-23T06:19:39;96166.72;;;7.82;100.00
57606;BME280;43430;48.204;11.556;2022-10-23T06:22:05;96170.53;;;7.79;100.00
57606;BME280;43430;48.204;11.556;2022-10-23T06:24:30;96168.53;;;7.81;100.00
57606;BME280;43430;48.204;11.556;2022-10-23T06:26:56;96161.88;;;7.85;100.00
57606;BME280;43430;48.204;11.556;2022-10-23T06:29:21;96166.91;;;7.87;100.00
57606;BME280;43430;48.204;11.556;2022-10-23T06:31:47;96170.16;;;7.89;100.00
57606;BME280;43430;48.204;11.556;2022-10-23T06:34:13;96168.53;;;7.95;100.00
57606;BME280;43430;48.204;11.556;2022-10-23T06:36:39;96163.91;;;7.97;100.00
57606;BME280;43430;48.204;11.556;2022-10-23T06:39:04;96171.78;;;8.03;100.00
57606;BME280;43430;48.204;11.556;2022-10-23T06:41:30;96173.63;;;8.09;100.00
57606;BME280;43430;48.204;11.556;2022-10-23T06:43:55;96168.38;;;8.16;100.00
57606;BME280;43430;48.204;11.556;2022-10-23T06:46:21;96166.75;;;8.22;100.00
57606;BME280;43430;48.204;11.556;2022-10-23T06:48:46;96169.75;;;8.25;100.00
57606;BME280;43430;48.204;11.556;2022-10-23T06:51:13;96171.19;;;8.35;100.00
57606;BME280;43430;48.204;11.556;2022-10-23T06:53:39;96165.16;;;8.47;100.00
57606;BME280;43430;48.204;11.556;2022-10-23T06:56:06;96161.09;;;8.51;100.00
57606;BME280;43430;48.204;11.556;2022-10-23T06:58:33;96159.06;;;8.67;100.00
57606;BME280;43430;48.204;11.556;2022-10-23T07:01:00;96164.53;;;8.72;100.00
57606;BME280;43430;48.204;11.556;2022-10-23T07:03:26;96162.06;;;8.77;100.00
57606;BME280;43430;48.204;11.556;2022-10-23T07:05:52;96171.38;;;8.86;100.00
57606;BME280;43430;48.204;11.556;2022-10-23T07:08:17;96181.03;;;9.06;100.00
57606;BME280;43430;48.204;11.556;2022-10-23T07:10:43;96175.53;;;9.14;100.00
57606;BME280;43430;48.204;11.556;2022-10-23T07:13:09;96170.41;;;9.32;100.00
57606;BME280;43430;48.204;11.556;2022-10-23T07:15:35;96159.06;;;9.32;100.00
57606;BME280;43430;48.204;11.556;2022-10-23T07:18:01;96165.09;;;9.45;100.00
57606;BME280;43430;48.204;11.556;2022-10-23T07:20:26;96160.00;;;9.50;100.00
57606;BME280;43430;48.204;11.556;2022-10-23T07:22:53;96142.53;;;9.63;100.00
57606;BME280;43430;48.204;11.556;2022-10-23T07:25:23;96136.84;;;9.66;100.00
57606;BME280;43430;48.204;11.556;2022-10-23T07:27:49;96125.84;;;9.75;100.00
57606;BME280;43430;48.204;11.556;2022-10-23T07:30:15;96123.97;;;9.83;100.00
57606;BME280;43430;48.204;11.556;2022-10-23T07:32:40;96123.13;;;9.89;100.00
57606;BME280;43430;48.204;11.556;2022-10-23T07:35:06;96107.03;;;9.97;100.00
57606;BME280;43430;48.204;11.556;2022-10-23T07:37:31;96113.34;;;9.96;100.00
57606;BME280;43430;48.204;11.556;2022-10-23T07:39:57;96127.69;;;10.00;100.00
57606;BME280;43430;48.204;11.556;2022-10-23T07:42:22;96139.78;;;10.08;100.00
57606;BME280;43430;48.204;11.556;2022-10-23T07:44:48;96129.63;;;10.11;100.00
57606;BME280;43430;48.204;11.556;2022-10-23T07:47:13;96123.66;;;10.29;100.00
57606;BME280;43430;48.204;11.556;2022-10-23T07:49:38;96137.66;;;10.30;100.00
57606;BME280;43430;48.204;11.556;2022-10-23T07:52:04;96133.56;;;10.34;100.00
57606;BME280;43430;48.204;11.556;2022-10-23T07:54:30;96131.88;;;10.39;100.00
57606;BME280;43430;48.204;11.556;2022-10-23T07:56:57;96125.31;;;10.49;100.00
57606;BME280;43430;48.204;11.556;2022-10-23T07:59:22;96121.56;;;10.56;100.00
57606;BME280;43430;48.204;11.556;2022-10-23T08:01:48;96113.84;;;10.80;100.00
57606;BME280;43430;48.204;11.556;2022-10-23T08:04:13;96111.00;;;10.81;100.00
57606;BME280;43430;48.204;11.556;2022-10-23T08:06:39;96101.75;;;10.90;100.00
57606;BME280;43430;48.204;11.556;2022-10-23T08:09:04;96098.38;;;11.02;100.00
57606;BME280;43430;48.204;11.556;2022-10-23T08:11:30;96086.13;;;11.26;100.00
57606;BME280;43430;48.204;11.556;2022-10-23T08:14:00;96078.66;;;11.34;100.00
57606;BME280;43430;48.204;11.556;2022-10-23T08:16:31;96084.22;;;11.45;100.00
57606;BME280;43430;48.204;11.556;2022-10-23T08:18:56;96076.25;;;11.63;100.00
57606;BME280;43430;48.204;11.556;2022-10-23T08:21:22;96070.75;;;11.76;100.00
57606;BME280;43430;48.204;11.556;2022-10-23T08:23:47;96068.53;;;11.92;100.00
57606;BME280;43430;48.204;11.556;2022-10-23T08:26:13;96062.47;;;12.03;100.00
57606;BME280;43430;48.204;11.556;2022-10-23T08:28:39;96065.59;;;12.11;100.00
57606;BME280;43430;48.204;11.556;2022-10-23T08:31:09;96072.56;;;12.18;100.00
57606;BME280;43430;48.204;11.556;2022-10-23T08:33:36;96063.03;;;12.28;100.00
57606;BME280;43430;48.204;11.556;2022-10-23T08:36:01;96049.94;;;12.33;100.00
57606;BME280;43430;48.204;11.556;2022-10-23T08:38:27;96057.97;;;12.39;100.00
57606;BME280;43430;48.204;11.556;2022-10-23T08:40:52;96041.53;;;12.60;100.00
57606;BME280;43430;48.204;11.556;2022-10-23T08:43:31;96049.69;;;12.70;100.00
57606;BME280;43430;48.204;11.556;2022-10-23T08:46:07;96044.47;;;12.87;100.00
57606;BME280;43430;48.204;11.556;2022-10-23T08:51:35;96047.06;;;12.99;100.00
57606;BME280;43430;48.204;11.556;2022-10-23T08:54:07;96043.59;;;13.10;100.00
57606;BME280;43430;48.204;11.556;2022-10-23T08:56:37;96038.84;;;13.24;100.00
57606;BME280;43430;48.204;11.556;2022-10-23T09:02:12;96022.78;;;13.59;100.00
57606;BME280;43430;48.204;11.556;2022-10-23T09:04:41;96009.69;;;13.69;100.00
57606;BME280;43430;48.204;11.556;2022-10-23T09:10:03;96002.38;;;13.93;100.00
57606;BME280;43430;48.204;11.556;2022-10-23T09:12:35;95990.91;;;14.05;100.00
57606;BME280;43430;48.204;11.556;2022-10-23T09:17:30;95981.63;;;14.24;100.00
57606;BME280;43430;48.204;11.556;2022-10-23T09:20:10;95981.28;;;14.37;100.00
57606;BME280;43430;48.204;11.556;2022-10-23T09:22:37;95986.09;;;14.40;100.00
57606;BME280;43430;48.204;11.556;2022-10-23T09:25:08;95986.56;;;14.54;100.00
57606;BME280;43430;48.204;11.556;2022-10-23T09:27:33;95995.31;;;14.55;100.00
57606;BME280;43430;48.204;11.556;2022-10-23T09:29:59;95986.66;;;14.59;100.00
57606;BME280;43430;48.204;11.556;2022-10-23T09:32:35;95972.25;;;14.77;100.00
57606;BME280;43430;48.204;11.556;2022-10-23T09:35:01;95977.38;;;14.84;100.00
57606;BME280;43430;48.204;11.556;2022-10-23T09:37:31;95974.53;;;14.90;100.00
57606;BME280;43430;48.204;11.556;2022-10-23T09:40:18;95973.03;;;15.00;100.00
57606;BME280;43430;48.204;11.556;2022-10-23T09:43:17;95972.09;;;15.11;100.00
57606;BME280;43430;48.204;11.556;2022-10-23T09:45:43;95969.59;;;15.26;100.00
57606;BME280;43430;48.204;11.556;2022-10-23T09:48:18;95963.56;;;15.36;100.00
57606;BME280;43430;48.204;11.556;2022-10-23T09:53:38;95959.03;;;15.63;100.00
57606;BME280;43430;48.204;11.556;2022-10-23T09:56:22;95951.09;;;15.69;100.00
57606;BME280;43430;48.204;11.556;2022-10-23T10:01:33;95934.56;;;15.99;100.00
57606;BME280;43430;48.204;11.556;2022-10-23T10:04:02;95932.09;;;16.29;100.00
57606;BME280;43430;48.204;11.556;2022-10-23T10:06:32;95932.88;;;16.25;100.00
57606;BME280;43430;48.204;11.556;2022-10-23T10:09:16;95931.28;;;16.29;100.00
57606;BME280;43430;48.204;11.556;2022-10-23T10:11:51;95930.78;;;16.37;100.00
57606;BME280;43430;48.204;11.556;2022-10-23T10:20:20;95921.53;;;16.55;100.00
57606;BME280;43430;48.204;11.556;2022-10-23T10:22:52;95930.88;;;16.57;100.00
57606;BME280;43430;48.204;11.556;2022-10-23T10:25:34;95926.72;;;16.77;100.00
57606;BME280;43430;48.204;11.556;2022-10-23T10:30:35;95919.56;;;16.88;100.00
57606;BME280;43430;48.204;11.556;2022-10-23T10:33:14;95916.66;;;17.04;100.00
57606;BME280;43430;48.204;11.556;2022-10-23T10:38:44;95906.81;;;17.20;100.00
57606;BME280;43430;48.204;11.556;2022-10-23T10:44:00;95907.66;;;17.31;100.00
57606;BME280;43430;48.204;11.556;2022-10-23T10:46:45;95907.66;;;17.31;100.00
57606;BME280;43430;48.204;11.556;2022-10-23T10:57:33;95871.91;;;17.52;100.00
57606;BME280;43430;48.204;11.556;2022-10-23T11:00:04;95865.25;;;17.65;100.00
57606;BME280;43430;48.204;11.556;2022-10-23T11:02:37;95871.91;;;17.63;100.00
57606;BME280;43430;48.204;11.556;2022-10-23T11:05:32;95855.63;;;17.64;100.00
57606;BME280;43430;48.204;11.556;2022-10-23T11:08:19;95856.97;;;17.67;100.00
57606;BME280;43430;48.204;11.556;2022-10-23T11:10:49;95864.44;;;17.65;100.00
57606;BME280;43430;48.204;11.556;2022-10-23T11:13:27;95852.16;;;17.74;100.00
57606;BME280;43430;48.204;11.556;2022-10-23T11:16:00;95852.69;;;17.71;100.00
57606;BME280;43430;48.204;11.556;2022-10-23T11:18:29;95844.97;;;17.69;100.00
57606;BME280;43430;48.204;11.556;2022-10-23T11:21:27;95834.56;;;17.73;100.00
57606;BME280;43430;48.204;11.556;2022-10-23T11:26:53;95827.63;;;17.82;100.00
57606;BME280;43430;48.204;11.556;2022-10-23T11:29:32;95831.34;;;17.91;100.00
57606;BME280;43430;48.204;11.556;2022-10-23T11:32:24;95828.38;;;17.98;100.00
57606;BME280;43430;48.204;11.556;2022-10-23T11:37:22;95836.31;;;18.18;100.00
57606;BME280;43430;48.204;11.556;2022-10-23T11:45:37;95812.72;;;18.41;100.00
57606;BME280;43430;48.204;11.556;2022-10-23T11:50:36;95808.19;;;18.41;100.00
57606;BME280;43430;48.204;11.556;2022-10-23T11:58:46;95802.03;;;18.41;100.00
57606;BME280;43430;48.204;11.556;2022-10-23T12:03:51;95797.97;;;18.54;100.00
57606;BME280;43430;48.204;11.556;2022-10-23T12:06:25;95799.53;;;18.60;100.00
57606;BME280;43430;48.204;11.556;2022-10-23T12:08:55;95795.22;;;18.69;100.00
57606;BME280;43430;48.204;11.556;2022-10-23T12:11:38;95794.41;;;18.73;100.00
57606;BME280;43430;48.204;11.556;2022-10-23T12:14:23;95795.50;;;18.72;100.00
57606;BME280;43430;48.204;11.556;2022-10-23T12:16:49;95788.47;;;18.82;100.00
57606;BME280;43430;48.204;11.556;2022-10-23T12:19:19;95782.78;;;18.93;100.00
57606;BME280;43430;48.204;11.556;2022-10-23T12:21:45;95785.72;;;18.92;100.00
57606;BME280;43430;48.204;11.556;2022-10-23T12:27:13;95773.69;;;18.94;100.00
57606;BME280;43430;48.204;11.556;2022-10-23T12:29:59;95773.06;;;19.03;100.00
57606;BME280;43430;48.204;11.556;2022-10-23T12:40:25;95766.75;;;18.93;100.00
57606;BME280;43430;48.204;11.556;2022-10-23T12:42:58;95755.50;;;18.96;100.00
57606;BME280;43430;48.204;11.556;2022-10-23T12:45:31;95753.16;;;19.19;100.00
57606;BME280;43430;48.204;11.556;2022-10-23T12:48:00;95747.00;;;19.18;100.00
57606;BME280;43430;48.204;11.556;2022-10-23T12:50:28;95747.25;;;19.22;100.00
57606;BME280;43430;48.204;11.556;2022-10-23T12:52:57;95744.56;;;19.22;100.00
57606;BME280;43430;48.204;11.556;2022-10-23T12:55:25;95750.69;;;19.28;100.00
57606;BME280;43430;48.204;11.556;2022-10-23T12:57:52;95749.88;;;19.27;100.00
57606;BME280;43430;48.204;11.556;2022-10-23T13:00:20;95731.91;;;19.33;100.00
57606;BME280;43430;48.204;11.556;2022-10-23T13:02:59;95744.31;;;19.48;100.00
57606;BME280;43430;48.204;11.556;2022-10-23T13:05:26;95736.47;;;19.56;100.00
57606;BME280;43430;48.204;11.556;2022-10-23T13:07:52;95738.41;;;19.51;100.00
57606;BME280;43430;48.204;11.556;2022-10-23T13:10:20;95745.84;;;19.54;100.00
57606;BME280;43430;48.204;11.556;2022-10-23T13:12:57;95733.22;;;19.59;100.00
57606;BME280;43430;48.204;11.556;2022-10-23T13:15:24;95729.34;;;19.47;100.00
57606;BME280;43430;48.204;11.556;2022-10-23T13:20:27;95735.91;;;19.35;100.00
57606;BME280;43430;48.204;11.556;2022-10-23T13:23:08;95728.13;;;19.34;100.00
57606;BME280;43430;48.204;11.556;2022-10-23T13:25:35;95721.84;;;19.49;100.00
57606;BME280;43430;48.204;11.556;2022-10-23T13:30:36;95720.53;;;19.46;100.00
57606;BME280;43430;48.204;11.556;2022-10-23T13:38:41;95714.63;;;19.49;100.00
57606;BME280;43430;48.204;11.556;2022-10-23T13:41:14;95714.50;;;19.59;100.00
57606;BME280;43430;48.204;11.556;2022-10-23T13:43:41;95707.97;;;19.71;100.00
57606;BME280;43430;48.204;11.556;2022-10-23T13:46:17;95708.97;;;19.51;100.00
57606;BME280;43430;48.204;11.556;2022-10-23T13:48:44;95707.47;;;19.44;100.00
57606;BME280;43430;48.204;11.556;2022-10-23T13:51:21;95704.50;;;19.46;100.00
57606;BME280;43430;48.204;11.556;2022-10-23T13:53:47;95707.81;;;19.38;100.00
57606;BME280;43430;48.204;11.556;2022-10-23T13:56:14;95716.16;;;19.31;100.00
57606;BME280;43430;48.204;11.556;2022-10-23T13:58:40;95721.03;;;19.24;100.00
57606;BME280;43430;48.204;11.556;2022-10-23T14:01:14;95710.91;;;19.21;100.00
57606;BME280;43430;48.204;11.556;2022-10-23T14:03:41;95709.28;;;19.20;100.00
57606;BME280;43430;48.204;11.556;2022-10-23T14:06:06;95707.22;;;19.17;100.00
57606;BME280;43430;48.204;11.556;2022-10-23T14:08:32;95709.88;;;19.17;100.00
57606;BME280;43430;48.204;11.556;2022-10-23T14:10:57;95716.84;;;19.13;100.00
57606;BME280;43430;48.204;11.556;2022-10-23T14:13:22;95711.41;;;19.23;100.00
57606;BME280;43430;48.204;11.556;2022-10-23T14:15:54;95713.69;;;19.11;100.00
57606;BME280;43430;48.204;11.556;2022-10-23T14:18:20;95704.91;;;19.05;100.00
57606;BME280;43430;48.204;11.556;2022-10-23T14:20:45;95717.53;;;19.00;100.00
57606;BME280;43430;48.204;11.556;2022-10-23T14:23:11;95721.72;;;19.06;100.00
57606;BME280;43430;48.204;11.556;2022-10-23T14:25:37;95720.22;;;19.00;100.00
57606;BME280;43430;48.204;11.556;2022-10-23T14:28:02;95713.81;;;18.95;100.00
57606;BME280;43430;48.204;11.556;2022-10-23T14:30:28;95708.19;;;18.97;100.00
57606;BME280;43430;48.204;11.556;2022-10-23T14:32:53;95708.00;;;18.88;100.00
57606;BME280;43430;48.204;11.556;2022-10-23T14:35:19;95705.63;;;18.87;100.00
57606;BME280;43430;48.204;11.556;2022-10-23T14:37:44;95699.63;;;18.66;100.00
57606;BME280;43430;48.204;11.556;2022-10-23T14:40:09;95702.88;;;18.58;100.00
57606;BME280;43430;48.204;11.556;2022-10-23T14:42:35;95707.47;;;18.52;100.00
57606;BME280;43430;48.204;11.556;2022-10-23T14:45:01;95712.09;;;18.41;100.00
57606;BME280;43430;48.204;11.556;2022-10-23T14:47:27;95713.94;;;18.41;100.00